Terminal Aerodrome Forecast
Issued by NWS Cleveland, OH

Home | Current Version | Previous Version | Graphics & Text | Print | Product List | Glossary On
Versions: 1 2 3 4 5 6 7 8 9 10 11 12 13 14 15 16 17 18 19 20 21 22
000
FTUS41 KCLE 071500 AAA
TAFMFD
TAF AMD
KMFD 071554Z 0716/0812 22015G25KT P6SM VCTS BKN030 BKN045CB
     FM080000 23009KT P6SM BKN045
     FM080400 22007KT 6SM BR SCT040 BKN150
     FM080700 21006KT 4SM BR SCT040 BKN200=

USA.gov is the U.S. government's official web portal to all federal, state and local government web resources and services.